Time;durP1;ratioP1;P1;durP2;ratioP2;P2;SDS_P1;SDS_P2;PMS_P1;PMS_P2;Temp;Humidity;BMP_temperature;BMP_pressure;BME280_temperature;BME280_humidity;BME280_pressure;Samples;Min_cycle;Max_cycle;Signal;HPM_P1;HPM_P2
2022/07/27 00:02:52;;;;;;;2.50;0.20;;;;;;;22.17;51.46;100186.13;10454939;28;20155;-56
2022/07/27 00:07:54;;;;;;;2.05;0.40;;;;;;;22.18;51.68;100190.50;10453458;28;20121;-56
2022/07/27 00:12:55;;;;;;;1.10;0.20;;;;;;;22.16;51.51;100193.44;10452206;28;20055;-55
2022/07/27 00:17:59;;;;;;;1.48;0.20;;;;;;;22.14;51.96;100200.91;10455387;28;20044;-56
2022/07/27 00:23:01;;;;;;;0.55;0.10;;;;;;;22.05;52.38;100192.13;10451092;28;20044;-56
2022/07/27 00:28:03;;;;;;;0.40;0.20;;;;;;;21.96;52.42;100185.16;10446881;28;20048;-56
2022/07/27 00:33:05;;;;;;;0.43;0.10;;;;;;;22.00;52.37;100189.16;10449941;28;20135;-56
2022/07/27 00:38:06;;;;;;;0.80;0.20;;;;;;;21.81;52.79;100192.59;10453259;28;20124;-55
2022/07/27 00:43:08;;;;;;;1.05;0.20;;;;;;;21.78;52.24;100196.53;10447323;28;20147;-55
2022/07/27 00:48:09;;;;;;;0.82;0.10;;;;;;;21.57;52.55;100205.56;10453992;28;20071;-55
2022/07/27 00:53:11;;;;;;;1.35;0.30;;;;;;;21.47;52.43;100194.22;10446931;28;20158;-55
2022/07/27 00:58:13;;;;;;;1.88;0.35;;;;;;;21.46;52.09;100200.66;10451297;28;20141;-55
2022/07/27 01:03:14;;;;;;;0.25;0.10;;;;;;;21.51;51.86;100209.06;10445835;28;20124;-59
2022/07/27 01:08:16;;;;;;;0.32;0.10;;;;;;;21.54;51.76;100201.38;10450404;28;20125;-55
2022/07/27 01:13:18;;;;;;;0.57;0.22;;;;;;;21.62;51.52;100202.25;10450906;28;20206;-55
2022/07/27 01:18:27;;;;;;;0.70;0.10;;;;;;;21.53;52.54;100198.88;10447802;28;20139;-56
2022/07/27 01:23:31;;;;;;;0.63;0.20;;;;;;;21.51;52.10;100212.63;10448314;28;20131;-55
2022/07/27 01:28:33;;;;;;;1.48;0.82;;;;;;;21.43;52.91;100207.28;10463460;28;20139;-56
2022/07/27 01:33:34;;;;;;;0.90;0.10;;;;;;;21.47;52.82;100200.47;10463451;28;20063;-56
2022/07/27 01:38:35;;;;;;;1.48;0.28;;;;;;;21.46;53.02;100208.78;10461393;28;20131;-56
2022/07/27 01:43:37;;;;;;;2.22;0.40;;;;;;;21.46;53.12;100201.47;10461650;28;20127;-56
2022/07/27 01:48:38;;;;;;;0.73;0.22;;;;;;;21.18;53.87;100207.72;10466649;28;20142;-55
2022/07/27 01:53:40;;;;;;;0.45;0.30;;;;;;;21.30;53.80;100199.91;10460938;28;20872;-55
2022/07/27 01:58:42;;;;;;;1.40;0.20;;;;;;;21.36;54.03;100209.09;10457152;28;20081;-57
2022/07/27 02:03:44;;;;;;;1.00;0.20;;;;;;;21.36;54.07;100206.41;10460733;28;20466;-55
2022/07/27 02:08:45;;;;;;;0.20;0.15;;;;;;;21.36;54.27;100192.84;10457389;28;20051;-55
2022/07/27 02:13:48;;;;;;;1.23;0.20;;;;;;;21.27;54.72;100202.16;10460186;28;20044;-54
2022/07/27 02:18:49;;;;;;;0.50;0.30;;;;;;;21.26;55.22;100197.75;10460972;28;20131;-54
2022/07/27 02:23:50;;;;;;;1.75;0.50;;;;;;;21.11;55.98;100201.41;10440556;28;20039;-54
2022/07/27 02:28:52;;;;;;;0.63;0.30;;;;;;;21.14;56.05;100198.31;10459920;28;20709;-55
2022/07/27 02:33:53;;;;;;;0.68;0.50;;;;;;;20.89;56.99;100200.56;10443937;28;20516;-54
2022/07/27 02:38:56;;;;;;;0.80;0.28;;;;;;;20.93;57.27;100198.31;10449884;28;20905;-55
2022/07/27 02:43:57;;;;;;;1.10;0.30;;;;;;;20.95;56.54;100190.84;10452413;28;20730;-55
2022/07/27 02:48:58;;;;;;;0.63;0.22;;;;;;;20.85;57.13;100185.72;10447374;28;20045;-55
2022/07/27 02:54:01;;;;;;;1.98;0.40;;;;;;;20.44;58.18;100187.13;10451046;28;20053;-55
2022/07/27 02:59:02;;;;;;;0.80;0.25;;;;;;;20.26;58.97;100187.53;10452721;28;20858;-55
2022/07/27 03:04:04;;;;;;;1.73;0.68;;;;;;;20.07;59.37;100188.97;10434497;28;20181;-55
2022/07/27 03:09:06;;;;;;;1.45;0.32;;;;;;;19.99;59.41;100194.47;10453518;28;20044;-55
2022/07/27 03:14:07;;;;;;;2.70;0.55;;;;;;;20.24;58.48;100195.00;10454684;28;20123;-55
2022/07/27 03:19:09;;;;;;;1.20;0.70;;;;;;;20.31;58.41;100192.38;10452530;28;20678;-56
2022/07/27 03:24:10;;;;;;;2.30;0.55;;;;;;;20.22;58.63;100199.78;10451154;28;20064;-56
2022/07/27 03:29:12;;;;;;;2.05;0.47;;;;;;;20.37;57.70;100191.66;10455218;28;20041;-56
2022/07/27 03:34:14;;;;;;;0.77;0.40;;;;;;;20.49;57.30;100192.81;10441141;28;20233;-55
2022/07/27 03:39:15;;;;;;;0.60;0.20;;;;;;;20.57;57.10;100201.84;10453167;28;20143;-58
2022/07/27 03:44:17;;;;;;;1.58;0.80;;;;;;;20.57;57.24;100204.56;10457860;28;20135;-55
2022/07/27 03:49:18;;;;;;;1.67;0.50;;;;;;;20.58;56.70;100206.22;10458630;28;20060;-56
2022/07/27 03:54:20;;;;;;;1.63;0.50;;;;;;;20.52;56.74;100206.97;10453377;28;20418;-55
2022/07/27 03:59:21;;;;;;;2.55;0.57;;;;;;;20.22;57.49;100212.44;10453318;28;20497;-55
2022/07/27 04:04:23;;;;;;;1.60;0.50;;;;;;;20.46;56.78;100203.16;10453845;28;20152;-55
2022/07/27 04:09:24;;;;;;;2.08;0.77;;;;;;;20.43;56.63;100215.22;10454975;28;20066;-55
2022/07/27 04:14:27;;;;;;;2.72;0.70;;;;;;;20.32;56.66;100218.38;10452965;28;20425;-55
2022/07/27 04:19:29;;;;;;;4.57;0.80;;;;;;;20.15;56.63;100215.06;10433422;28;20897;-55
2022/07/27 04:24:30;;;;;;;3.38;0.68;;;;;;;19.96;57.42;100217.28;10451376;28;20139;-55
2022/07/27 04:29:32;;;;;;;2.30;0.45;;;;;;;20.07;57.08;100226.81;10434296;28;20148;-56
2022/07/27 04:34:34;;;;;;;2.90;0.60;;;;;;;20.05;57.17;100211.78;10446892;28;20052;-57
2022/07/27 04:39:35;;;;;;;5.18;0.80;;;;;;;20.08;56.66;100219.53;10451057;28;20044;-55
2022/07/27 04:44:37;;;;;;;3.70;0.90;;;;;;;19.94;56.75;100210.41;10452058;28;20084;-54
2022/07/27 04:49:39;;;;;;;3.08;0.82;;;;;;;19.92;57.21;100220.53;10451414;28;20774;-55
2022/07/27 04:54:41;;;;;;;3.45;0.90;;;;;;;19.90;56.77;100228.00;10409458;28;20052;-64
2022/07/27 04:59:43;;;;;;;1.65;0.60;;;;;;;19.56;57.40;100235.56;10421911;28;20056;-63
2022/07/27 05:04:44;;;;;;;2.78;0.75;;;;;;;19.54;57.81;100226.78;10425960;28;20166;-66
2022/07/27 05:09:46;;;;;;;3.38;0.70;;;;;;;19.81;56.96;100234.50;10422701;28;20226;-64
2022/07/27 05:14:47;;;;;;;4.75;0.65;;;;;;;19.82;57.16;100238.91;10427021;28;20386;-64
2022/07/27 05:19:49;;;;;;;4.15;0.90;;;;;;;19.78;57.26;100239.22;10423973;28;20052;-64
2022/07/27 05:24:51;;;;;;;2.40;0.52;;;;;;;20.01;56.45;100248.31;10423739;28;20149;-65
2022/07/27 05:29:53;;;;;;;5.25;0.90;;;;;;;20.11;56.48;100252.41;10423640;28;20052;-64
2022/07/27 05:34:54;;;;;;;2.58;0.52;;;;;;;20.05;56.15;100253.16;10411475;28;20164;-64
2022/07/27 05:39:55;;;;;;;3.17;1.20;;;;;;;20.12;55.96;100267.59;10423139;28;20043;-64
2022/07/27 05:44:57;;;;;;;3.92;1.08;;;;;;;20.03;55.99;100267.88;10427827;28;20056;-63
2022/07/27 05:49:58;;;;;;;2.70;1.02;;;;;;;20.03;55.86;100276.00;10423824;28;20048;-64
2022/07/27 05:55:00;;;;;;;4.47;1.52;;;;;;;19.99;55.60;100275.50;10426430;28;20063;-65
2022/07/27 06:00:03;;;;;;;4.22;0.68;;;;;;;20.13;55.50;100269.28;10401568;28;20149;-64
2022/07/27 06:05:05;;;;;;;3.95;1.20;;;;;;;20.23;55.41;100278.97;10408326;28;20101;-65
2022/07/27 06:10:12;;;;;;;6.30;1.55;;;;;;;20.35;54.81;100288.28;10408457;22;20053;-63
2022/07/27 06:15:16;;;;;;;4.32;0.95;;;;;;;20.31;55.26;100287.84;10387887;28;20438;-63
2022/07/27 06:20:18;;;;;;;3.47;0.90;;;;;;;20.18;55.46;100284.09;10387851;28;20056;-62
2022/07/27 06:25:21;;;;;;;6.15;1.77;;;;;;;20.40;54.55;100285.03;10393291;28;20626;-62
2022/07/27 06:30:22;;;;;;;4.13;1.33;;;;;;;20.68;54.58;100287.91;10371962;28;20560;-64
2022/07/27 06:35:23;;;;;;;4.05;1.15;;;;;;;20.88;53.76;100300.84;10393387;28;20052;-62
2022/07/27 06:40:25;;;;;;;5.53;1.20;;;;;;;20.91;54.33;100297.75;10399277;28;20152;-62
2022/07/27 06:45:30;;;;;;;4.45;1.08;;;;;;;20.80;53.72;100297.22;10405501;28;20052;-62
2022/07/27 06:50:32;;;;;;;3.85;1.10;;;;;;;20.70;54.70;100302.06;10389674;28;20148;-63
2022/07/27 06:55:33;;;;;;;2.85;1.05;;;;;;;21.04;53.76;100308.72;10402784;28;20147;-71
2022/07/27 07:00:35;;;;;;;2.63;0.82;;;;;;;20.65;54.66;100301.78;10400148;28;20718;-65
2022/07/27 07:05:45;;;;;;;5.53;1.25;;;;;;;20.94;53.90;100313.59;10405391;28;20060;-66
2022/07/27 07:10:47;;;;;;;3.08;1.00;;;;;;;20.97;52.63;100315.94;10400248;28;20618;-69
2022/07/27 07:15:49;;;;;;;5.90;0.70;;;;;;;21.02;52.71;100308.94;10391838;28;20101;-69
2022/07/27 07:20:50;;;;;;;8.52;1.05;;;;;;;21.19;52.31;100312.22;10392208;28;20055;-68
2022/07/27 07:25:52;;;;;;;5.07;1.13;;;;;;;21.56;51.49;100316.78;10403384;28;20049;-66
2022/07/27 07:30:54;;;;;;;4.35;0.60;;;;;;;21.59;51.36;100322.66;10406460;28;20066;-65
2022/07/27 07:35:55;;;;;;;3.78;0.90;;;;;;;21.82;49.61;100317.03;10399089;28;20143;-69
2022/07/27 07:41:15;;;;;;;5.43;1.00;;;;;;;21.89;49.59;100323.34;10391787;28;20053;-69
2022/07/27 07:46:16;;;;;;;3.85;1.05;;;;;;;21.96;48.15;100322.56;10394553;28;20512;-70
2022/07/27 07:51:18;;;;;;;3.28;1.30;;;;;;;21.91;47.68;100316.91;10392073;28;20052;-69
2022/07/27 07:56:21;;;;;;;4.00;0.50;;;;;;;22.14;47.62;100320.16;10418549;28;20060;-72
2022/07/27 08:01:24;;;;;;;3.05;1.10;;;;;;;22.44;46.42;100317.25;10390073;28;20290;-65
2022/07/27 08:06:26;;;;;;;2.42;0.82;;;;;;;22.34;45.68;100322.22;10381316;28;20052;-71
2022/07/27 08:11:28;;;;;;;4.63;1.33;;;;;;;;;;10386540;28;20121;-57
2022/07/27 08:16:29;;;;;;;4.30;0.75;;;;;;;22.71;45.27;100317.41;10374368;28;20052;-56
2022/07/27 08:21:31;;;;;;;3.00;0.52;;;;;;;22.89;44.33;100322.28;10390713;28;20162;-55
2022/07/27 08:26:36;;;;;;;2.40;0.55;;;;;;;22.64;43.80;100317.38;10389471;28;20134;-58
2022/07/27 08:31:37;;;;;;;4.50;0.95;;;;;;;22.37;44.80;100329.97;10384380;28;20139;-56
2022/07/27 08:36:52;;;;;;;4.30;0.85;;;;;;;22.83;43.57;100318.50;10387272;28;20049;-55
2022/07/27 08:41:54;;;;;;;5.07;0.70;;;;;;;22.81;43.30;100326.00;10388808;28;20041;-56
2022/07/27 08:46:56;;;;;;;3.72;0.80;;;;;;;23.03;42.70;100324.00;10386885;28;20136;-58
2022/07/27 08:51:58;;;;;;;3.13;0.80;;;;;;;23.06;42.61;100320.88;10389675;28;20049;-54
2022/07/27 08:56:59;;;;;;;2.88;0.90;;;;;;;23.41;42.55;100311.81;10382298;28;20052;-56
2022/07/27 09:02:02;;;;;;;2.85;0.95;;;;;;;23.85;40.85;100326.69;10391159;28;20133;-68
2022/07/27 09:07:04;;;;;;;;;;;;;;;23.52;41.01;100329.38;10372511;28;20045;-69
2022/07/27 09:12:09;;;;;;;4.72;1.00;;;;;;;23.89;40.06;100317.09;10386581;28;19928;-69
2022/07/27 09:17:21;;;;;;;2.92;0.70;;;;;;;24.33;39.31;100323.72;10369982;28;20276;-70
2022/07/27 09:22:52;;;;;;;3.13;0.95;;;;;;;24.84;37.73;100318.56;10373640;28;20079;-67
2022/07/27 09:27:58;;;;;;;3.75;1.00;;;;;;;25.29;37.35;100326.72;10390188;28;20131;-69
2022/07/27 09:33:04;;;;;;;4.28;0.60;;;;;;;25.60;35.85;100316.91;10387471;28;20059;-68
2022/07/27 09:38:21;;;;;;;4.72;0.98;;;;;;;25.61;35.39;100307.66;10386342;28;20052;-71
2022/07/27 09:43:22;;;;;;;2.90;0.77;;;;;;;25.89;35.85;100311.84;10385545;28;20056;-70
2022/07/27 09:48:44;;;;;;;2.38;0.52;;;;;;;25.52;35.18;100308.97;10395900;28;20723;-68
2022/07/27 09:53:45;;;;;;;2.53;0.50;;;;;;;25.48;34.84;100319.50;10396720;28;20081;-70
2022/07/27 09:58:52;;;;;;;4.70;0.73;;;;;;;26.36;33.53;100298.63;10398910;28;20060;-69
2022/07/27 10:03:59;;;;;;;3.55;1.13;;;;;;;27.33;32.19;100306.00;10392210;28;20057;-68
2022/07/27 10:09:01;;;;;;;3.80;1.00;;;;;;;26.78;32.80;100309.69;10397958;28;20044;-70
2022/07/27 10:14:02;;;;;;;3.20;0.63;;;;;;;27.28;32.54;100308.59;10400178;28;20052;-68
2022/07/27 10:19:04;;;;;;;2.77;0.80;;;;;;;26.51;31.94;100311.03;10398159;28;20272;-68
2022/07/27 10:24:21;;;;;;;3.33;0.77;;;;;;;26.40;32.90;100318.09;10398242;28;20064;-69
2022/07/27 10:29:23;;;;;;;2.83;0.60;;;;;;;27.37;31.37;100303.66;10396600;28;20041;-68
2022/07/27 10:34:42;;;;;;;2.47;0.47;;;;;;;28.48;29.76;100308.50;10396541;28;20724;-68
2022/07/27 10:39:49;;;;;;;4.13;1.20;;;;;;;26.69;31.51;100316.50;10392046;28;20128;-71
2022/07/27 10:44:59;;;;;;;3.17;0.65;;;;;;;27.07;31.29;100318.13;10393021;28;20048;-68
2022/07/27 10:50:15;;;;;;;3.35;0.60;;;;;;;27.25;31.21;100322.72;10400745;28;20048;-68
2022/07/27 10:55:29;;;;;;;6.47;0.70;;;;;;;28.21;29.54;100319.94;10396224;28;20048;-68
2022/07/27 11:00:49;;;;;;;3.97;0.75;;;;;;;29.19;28.20;100315.69;10395076;28;20057;-69
2022/07/27 11:06:19;;;;;;;1.23;0.43;;;;;;;29.69;27.25;100305.88;10408513;28;20051;-69
2022/07/27 11:11:41;;;;;;;3.63;0.70;;;;;;;29.37;28.20;100314.66;10397184;28;20064;-70
2022/07/27 11:16:43;;;;;;;3.60;0.47;;;;;;;29.31;27.68;100307.44;10392112;28;20546;-70
2022/07/27 11:21:56;;;;;;;1.73;0.77;;;;;;;29.50;27.13;100306.13;10389651;28;20051;-69
2022/07/27 11:26:58;;;;;;;;;;;;;;;29.59;26.79;100290.06;10386472;28;20797;-68
2022/07/27 11:32:01;;;;;;;1.25;0.43;;;;;;;30.08;27.15;100297.72;10379749;28;20442;-71
2022/07/27 11:37:12;;;;;;;1.92;0.60;;;;;;;29.04;27.48;100295.13;10379252;28;20057;-70
2022/07/27 11:42:14;;;;;;;3.40;1.00;;;;;;;28.74;28.81;100287.97;10395124;28;20056;-67
2022/07/27 11:47:27;;;;;;;2.47;0.30;;;;;;;29.04;27.08;100284.16;10395836;28;20052;-70
2022/07/27 11:52:28;;;;;;;1.17;0.20;;;;;;;29.82;26.56;100266.34;10397050;28;20056;-70
2022/07/27 11:57:31;;;;;;;1.77;0.30;;;;;;;30.08;25.78;100267.53;10398460;28;20124;-70
2022/07/27 12:02:33;;;;;;;2.63;0.57;;;;;;;29.60;26.56;100278.84;10393243;28;20995;-69
2022/07/27 12:07:35;;;;;;;2.90;0.43;;;;;;;29.47;26.45;100272.88;10396285;28;20131;-68
2022/07/27 12:12:37;;;;;;;1.85;0.50;;;;;;;30.04;26.43;100277.34;10401269;28;20088;-69
2022/07/27 12:17:39;;;;;;;1.83;0.25;;;;;;;30.12;25.21;100265.97;10393656;28;20162;-69
2022/07/27 12:22:47;;;;;;;1.95;0.30;;;;;;;30.82;24.82;100269.03;10392440;28;20158;-69
2022/07/27 12:27:56;;;;;;;1.65;0.63;;;;;;;30.03;25.67;100268.28;10396926;28;20044;-69
2022/07/27 12:32:58;;;;;;;1.63;0.38;;;;;;;29.74;25.28;100270.28;10395898;28;20078;-69
2022/07/27 12:38:03;;;;;;;1.58;0.28;;;;;;;29.62;25.73;100271.22;10394358;28;20064;-69
2022/07/27 12:43:05;;;;;;;1.92;0.30;;;;;;;29.47;25.62;100270.97;10387275;28;20139;-68
2022/07/27 12:48:12;;;;;;;3.05;0.35;;;;;;;29.04;25.91;100266.91;10397323;28;20201;-71
2022/07/27 12:53:16;;;;;;;4.07;0.73;;;;;;;28.92;25.85;100265.03;10410081;28;20757;-69
2022/07/27 12:58:17;;;;;;;2.00;0.32;;;;;;;29.21;27.14;100259.56;10395955;28;20136;-70
2022/07/27 13:03:19;;;;;;;2.78;0.50;;;;;;;28.36;26.82;100255.69;10402491;28;20102;-70
2022/07/27 13:08:21;;;;;;;1.65;0.40;;;;;;;28.86;26.85;100254.25;10405724;28;20692;-68
2022/07/27 13:13:23;;;;;;;3.45;0.30;;;;;;;29.21;26.06;100248.59;10375996;28;20060;-68
2022/07/27 13:18:25;;;;;;;3.08;0.47;;;;;;;29.56;25.85;100254.91;10369313;28;20631;-71
2022/07/27 13:23:26;;;;;;;1.57;0.30;;;;;;;28.44;26.75;100229.84;10384320;28;20079;-69
2022/07/27 13:28:28;;;;;;;2.53;0.50;;;;;;;28.37;27.14;100235.44;10369958;28;20298;-69
2022/07/27 13:33:29;;;;;;;3.72;0.47;;;;;;;28.62;26.53;100248.03;10383004;28;20169;-69
2022/07/27 13:38:31;;;;;;;2.53;0.50;;;;;;;28.42;26.93;100224.59;10382546;28;20072;-67
2022/07/27 13:43:32;;;;;;;3.00;0.70;;;;;;;28.09;27.51;100228.00;10385489;28;20352;-68
2022/07/27 13:48:34;;;;;;;2.87;1.03;;;;;;;27.97;27.09;100214.31;10389128;28;20766;-69
2022/07/27 13:53:35;;;;;;;0.93;0.40;;;;;;;27.33;28.40;100218.56;10383197;28;20049;-68
2022/07/27 13:58:39;;;;;;;2.87;0.63;;;;;;;27.49;28.19;100217.06;10372268;28;20108;-68
2022/07/27 14:03:41;;;;;;;1.50;0.82;;;;;;;27.32;28.47;100229.69;10393068;28;20056;-69
2022/07/27 14:08:45;;;;;;;3.60;0.88;;;;;;;27.33;28.74;100215.00;10379681;28;20152;-68
2022/07/27 14:13:47;;;;;;;1.42;0.30;;;;;;;27.05;28.85;100223.81;10362558;28;20045;-69
2022/07/27 14:18:49;;;;;;;3.10;0.30;;;;;;;26.73;29.21;100219.44;10367153;28;20163;-69
2022/07/27 14:23:50;;;;;;;3.03;0.47;;;;;;;26.75;28.98;100231.00;10396172;28;20060;-67
2022/07/27 14:28:53;;;;;;;2.28;0.68;;;;;;;26.64;28.96;100226.25;10395019;28;21128;-68
2022/07/27 14:33:54;;;;;;;1.60;0.40;;;;;;;26.45;29.36;100220.84;10410891;28;20185;-70
2022/07/27 14:38:56;;;;;;;3.53;0.50;;;;;;;26.32;29.75;100221.00;10397482;28;20049;-69
2022/07/27 14:43:57;;;;;;;3.13;0.70;;;;;;;26.29;29.31;100226.91;10409155;28;20048;-69
2022/07/27 14:48:59;;;;;;;1.50;0.45;;;;;;;26.06;29.53;100230.31;10397951;28;20137;-70
2022/07/27 14:54:07;;;;;;;1.90;0.38;;;;;;;26.00;29.55;100229.34;10412407;28;20263;-68
2022/07/27 14:59:08;;;;;;;3.03;0.40;;;;;;;25.97;29.88;100229.75;10435471;28;20055;-69
2022/07/27 15:04:10;;;;;;;0.95;0.40;;;;;;;25.58;30.31;100210.84;10458002;28;20060;-70
2022/07/27 15:09:11;;;;;;;2.42;0.35;;;;;;;25.73;31.00;100218.66;10405993;28;20049;-70
2022/07/27 15:14:13;;;;;;;1.50;0.50;;;;;;;25.59;30.29;100217.13;10405663;28;20059;-69
2022/07/27 15:19:15;;;;;;;1.88;0.50;;;;;;;25.67;30.67;100225.03;10426365;28;20063;-70
2022/07/27 15:24:17;;;;;;;2.80;0.30;;;;;;;25.66;30.73;100217.91;10410530;28;20417;-70
2022/07/27 15:29:18;;;;;;;1.95;0.20;;;;;;;25.60;31.04;100218.78;10430001;28;20432;-70
2022/07/27 15:34:21;;;;;;;0.57;0.30;;;;;;;25.45;30.89;100221.03;10421822;28;20241;-69
2022/07/27 15:39:23;;;;;;;4.47;0.40;;;;;;;25.35;30.97;100216.06;10407189;28;20445;-69
2022/07/27 15:44:25;;;;;;;1.48;0.30;;;;;;;25.10;31.01;100205.97;10412294;28;20228;-69
2022/07/27 15:49:27;;;;;;;2.28;0.43;;;;;;;25.10;30.97;100200.53;10429104;28;20155;-69
2022/07/27 15:54:28;;;;;;;1.30;0.30;;;;;;;25.09;30.67;100190.69;10410714;28;20135;-70
2022/07/27 15:59:35;;;;;;;3.33;0.50;;;;;;;25.00;30.81;100192.81;10410045;28;20154;-70
2022/07/27 16:04:36;;;;;;;2.45;0.77;;;;;;;25.03;31.19;100197.84;10411430;28;20048;-69
2022/07/27 16:09:38;;;;;;;1.90;0.30;;;;;;;25.09;30.82;100184.41;10427169;28;20150;-69
2022/07/27 16:14:39;;;;;;;2.72;0.30;;;;;;;25.10;30.90;100189.63;10405854;28;20097;-70
2022/07/27 16:19:41;;;;;;;1.95;0.30;;;;;;;25.04;30.69;100172.28;10427790;28;20172;-69
2022/07/27 16:24:43;;;;;;;1.63;0.20;;;;;;;25.04;31.07;100188.63;10407372;28;20114;-71
2022/07/27 16:29:44;;;;;;;8.05;0.73;;;;;;;24.95;34.91;100181.78;10381538;28;20098;-57
2022/07/27 16:34:46;;;;;;;2.97;0.40;;;;;;;24.87;31.91;100177.41;10382785;28;20789;-56
2022/07/27 16:39:47;;;;;;;1.85;0.40;;;;;;;24.72;33.55;100173.34;10380034;28;20048;-56
2022/07/27 16:44:48;;;;;;;3.28;0.50;;;;;;;24.72;31.98;100167.91;10383097;28;20053;-57
2022/07/27 16:49:50;;;;;;;2.10;0.70;;;;;;;24.73;30.95;100164.13;10391841;28;20060;-57
2022/07/27 16:54:52;;;;;;;3.33;0.60;;;;;;;24.69;31.54;100164.53;10389065;28;20048;-57
2022/07/27 16:59:54;;;;;;;3.45;0.70;;;;;;;24.73;30.79;100156.78;10392908;28;20548;-59
2022/07/27 17:04:55;;;;;;;2.78;0.40;;;;;;;24.66;31.53;100151.38;10399286;28;20239;-57
2022/07/27 17:09:57;;;;;;;2.15;0.20;;;;;;;24.63;31.22;100153.72;10390852;28;20490;-58
2022/07/27 17:14:59;;;;;;;1.35;0.40;;;;;;;24.60;32.04;100163.13;10392362;28;20052;-57
2022/07/27 17:20:00;;;;;;;3.75;0.60;;;;;;;24.59;32.28;100161.50;10393393;28;20128;-58
2022/07/27 17:25:02;;;;;;;2.78;0.30;;;;;;;24.51;32.31;100153.53;10395338;28;20047;-55
2022/07/27 17:30:05;;;;;;;4.25;0.75;;;;;;;24.33;32.22;100160.53;10395740;28;20059;-58
2022/07/27 17:35:06;;;;;;;1.95;0.20;;;;;;;24.28;31.42;100157.63;10388500;28;20576;-56
2022/07/27 17:40:08;;;;;;;2.30;1.02;;;;;;;24.20;32.85;100166.03;10391684;28;20704;-57
2022/07/27 17:45:10;;;;;;;1.73;0.40;;;;;;;24.18;32.61;100163.53;10384938;28;20344;-56
2022/07/27 17:50:11;;;;;;;0.75;0.20;;;;;;;24.17;32.50;100161.03;10382606;28;20120;-55
2022/07/27 17:55:12;;;;;;;1.98;0.50;;;;;;;24.11;32.51;100167.31;10389083;28;20988;-58
2022/07/27 18:00:14;;;;;;;2.47;0.50;;;;;;;24.05;32.72;100169.03;10384052;28;20364;-56
2022/07/27 18:05:16;;;;;;;1.27;0.40;;;;;;;23.98;32.95;100169.03;10384386;28;20151;-54
2022/07/27 18:10:19;;;;;;;0.68;0.28;;;;;;;23.90;32.88;100166.56;10393071;22;20257;-55
2022/07/27 18:20:41;;;;;;;8.57;5.80;;;;;;;23.78;32.76;100176.34;10435816;28;20094;-56
2022/07/27 18:25:43;;;;;;;4.10;2.40;;;;;;;23.77;33.71;100174.72;10432377;28;21867;-55
2022/07/27 18:30:46;;;;;;;2.90;1.60;;;;;;;23.67;33.09;100174.31;10431079;28;20164;-56
2022/07/27 18:35:48;;;;;;;2.60;1.50;;;;;;;23.58;33.34;100179.94;10433558;28;20121;-56
2022/07/27 18:40:49;;;;;;;1.52;0.57;;;;;;;23.35;33.42;100179.56;10433403;28;20056;-56
2022/07/27 18:45:51;;;;;;;2.63;0.73;;;;;;;23.36;33.83;100192.09;10432524;28;20511;-55
2022/07/27 18:50:52;;;;;;;3.75;0.40;;;;;;;23.25;33.90;100197.09;10434139;28;20153;-55
2022/07/27 18:55:54;;;;;;;1.55;0.60;;;;;;;23.24;34.69;100203.59;10434993;28;20056;-55
2022/07/27 19:00:58;;;;;;;;;;;;;;;23.18;33.66;100218.00;10431961;28;20134;-55
2022/07/27 19:05:59;;;;;;;1.85;0.38;;;;;;;23.17;34.31;100219.03;10433073;28;20034;-56
2022/07/27 19:11:01;;;;;;;1.52;0.35;;;;;;;23.08;33.79;100217.53;10429153;28;20083;-56
2022/07/27 19:16:02;;;;;;;3.00;0.22;;;;;;;22.98;33.83;100226.06;10432325;28;20064;-56
2022/07/27 19:21:04;;;;;;;2.40;0.43;;;;;;;22.90;35.06;100223.56;10428756;28;20052;-57
2022/07/27 19:26:05;;;;;;;1.98;0.50;;;;;;;22.80;34.32;100237.50;10433946;28;20086;-55
2022/07/27 19:31:07;;;;;;;4.65;0.55;;;;;;;22.75;34.49;100245.44;10431685;28;20253;-55
2022/07/27 19:36:23;;;;;;;4.57;0.65;;;;;;;22.57;34.60;100244.09;10434230;28;20105;-55
2022/07/27 19:41:25;;;;;;;5.50;0.95;;;;;;;22.57;35.18;100252.25;10435022;28;20925;-55
2022/07/27 19:46:27;;;;;;;3.15;1.00;;;;;;;22.51;34.98;100261.19;10419773;28;20060;-55
2022/07/27 19:51:28;;;;;;;2.85;0.35;;;;;;;22.43;35.97;100264.09;10429744;28;20062;-55
2022/07/27 19:56:30;;;;;;;1.55;0.60;;;;;;;22.35;35.21;100256.97;10414870;28;20052;-57
2022/07/27 20:01:37;;;;;;;0.55;0.30;;;;;;;22.27;35.13;100267.09;10433304;28;20044;-54
2022/07/27 20:06:39;;;;;;;3.47;0.60;;;;;;;22.19;34.98;100271.63;10434931;28;20140;-55
2022/07/27 20:11:41;;;;;;;1.67;0.47;;;;;;;22.16;36.69;100296.44;10433467;28;20339;-55
2022/07/27 20:16:42;;;;;;;1.77;0.52;;;;;;;22.00;35.07;100289.44;10431817;28;20055;-55
2022/07/27 20:21:44;;;;;;;1.30;0.50;;;;;;;21.87;35.70;100282.06;10436212;28;20170;-59
2022/07/27 20:26:45;;;;;;;1.55;0.30;;;;;;;21.89;35.76;100279.16;10429220;28;20052;-53
2022/07/27 20:31:49;;;;;;;1.48;0.50;;;;;;;21.87;36.57;100292.91;10427520;28;20056;-54
2022/07/27 20:36:55;;;;;;;4.85;0.52;;;;;;;21.85;36.02;100286.81;10429205;28;20056;-53
2022/07/27 20:41:57;;;;;;;1.13;0.55;;;;;;;21.65;36.35;100291.25;10427012;28;20052;-53
2022/07/27 20:46:58;;;;;;;2.03;0.50;;;;;;;21.69;35.97;100289.81;10411832;28;20819;-54
2022/07/27 20:52:00;;;;;;;2.72;0.45;;;;;;;21.60;35.97;100285.56;10428087;28;20048;-53
2022/07/27 20:57:01;;;;;;;1.55;0.40;;;;;;;21.66;37.42;100287.50;10416382;28;20135;-55
2022/07/27 21:02:02;;;;;;;1.85;0.30;;;;;;;21.59;35.55;100283.91;10448115;28;20047;-58
2022/07/27 21:07:04;;;;;;;2.58;0.40;;;;;;;21.46;36.01;100290.00;10436335;28;20063;-58
2022/07/27 21:12:06;;;;;;;1.60;0.60;;;;;;;21.31;36.07;100290.91;10433590;28;20554;-58
2022/07/27 21:17:07;;;;;;;3.08;0.90;;;;;;;21.19;36.41;100292.44;10462169;28;20039;-57
2022/07/27 21:22:09;;;;;;;3.50;0.50;;;;;;;21.11;36.77;100293.41;10464571;28;20131;-57
2022/07/27 21:27:10;;;;;;;3.50;0.40;;;;;;;21.07;37.65;100292.13;10461245;28;20055;-59
2022/07/27 21:32:12;;;;;;;1.77;0.40;;;;;;;21.03;37.50;100290.81;10463632;28;20044;-59
2022/07/27 21:37:13;;;;;;;2.22;0.45;;;;;;;20.92;37.09;100289.44;10458756;28;20060;-59
2022/07/27 21:42:15;;;;;;;3.55;0.40;;;;;;;20.79;37.45;100289.28;10463333;28;21879;-58
2022/07/27 21:47:16;;;;;;;1.88;0.40;;;;;;;20.78;37.76;100284.94;10462256;28;20072;-58
2022/07/27 21:52:18;;;;;;;1.65;0.60;;;;;;;20.68;37.12;100297.91;10460204;28;20246;-58
2022/07/27 21:57:19;;;;;;;1.33;0.40;;;;;;;20.57;37.02;100288.38;10463616;28;20048;-57
2022/07/27 22:02:20;;;;;;;1.90;0.50;;;;;;;20.52;37.69;100290.78;10465150;28;20127;-58
2022/07/27 22:07:28;;;;;;;1.23;0.45;;;;;;;20.39;38.01;100299.59;10458770;28;20197;-58
2022/07/27 22:12:29;;;;;;;4.75;0.40;;;;;;;20.40;38.29;100301.25;10462093;28;20041;-58
2022/07/27 22:17:31;;;;;;;1.92;0.40;;;;;;;20.33;38.23;100300.31;10463287;28;20145;-58
2022/07/27 22:22:32;;;;;;;3.53;1.10;;;;;;;20.23;37.73;100306.00;10465883;28;20257;-59
2022/07/27 22:27:34;;;;;;;4.40;0.57;;;;;;;20.23;38.85;100311.41;10462029;28;20127;-58
2022/07/27 22:32:35;;;;;;;2.00;0.68;;;;;;;20.14;38.40;100322.28;10466120;28;20135;-59
2022/07/27 22:37:37;;;;;;;2.80;0.57;;;;;;;20.21;38.20;100321.56;10466892;28;20058;-58
2022/07/27 22:42:38;;;;;;;2.30;0.40;;;;;;;20.07;38.41;100317.81;10465666;28;20568;-58
2022/07/27 22:47:41;;;;;;;2.78;1.15;;;;;;;20.01;39.57;100319.41;10466022;28;20127;-58
2022/07/27 22:52:42;;;;;;;6.50;0.50;;;;;;;20.09;38.59;100323.88;10465328;28;20213;-58
2022/07/27 22:57:43;;;;;;;2.67;0.73;;;;;;;19.94;38.85;100321.97;10464068;28;20143;-59
2022/07/27 23:02:45;;;;;;;3.33;0.47;;;;;;;19.85;39.38;100322.25;10458737;28;20151;-59
2022/07/27 23:07:46;;;;;;;2.90;0.52;;;;;;;19.75;38.98;100330.56;10462321;28;20068;-57
2022/07/27 23:12:48;;;;;;;4.18;0.60;;;;;;;19.74;38.86;100324.34;10463409;28;20076;-57
2022/07/27 23:17:49;;;;;;;2.72;0.95;;;;;;;19.64;40.03;100329.13;10464477;28;20103;-57
2022/07/27 23:22:51;;;;;;;1.23;0.40;;;;;;;19.65;39.08;100320.03;10460997;28;20127;-57